Time;durP1;ratioP1;P1;durP2;ratioP2;P2;SDS_P1;SDS_P2;PMS_P1;PMS_P2;Temp;Humidity;BMP_temperature;BMP_pressure;BME280_temperature;BME280_humidity;BME280_pressure;Samples;Min_cycle;Max_cycle;Signal;HPM_P1;HPM_P2
2022/06/09 00:00:41;;;;;;;0.40;0.10;;;14.90;99.90;;;;;;6247944;22;20442;-86
2022/06/09 00:03:12;;;;;;;0.32;0.05;;;14.80;99.90;;;;;;6247641;22;20014;-86
2022/06/09 00:05:39;;;;;;;0.10;0.10;;;14.80;99.90;;;;;;6247632;22;20011;-86
2022/06/09 00:08:06;;;;;;;0.20;0.10;;;14.80;99.90;;;;;;6248041;22;20004;-86
2022/06/09 00:10:39;;;;;;;0.10;0.10;;;14.80;99.90;;;;;;6275004;22;20058;-86
2022/06/09 00:13:05;;;;;;;0.28;0.10;;;14.80;99.90;;;;;;6274744;22;20003;-85
2022/06/09 00:15:31;;;;;;;0.25;0.10;;;14.60;99.90;;;;;;6246664;22;20003;-87
2022/06/09 00:17:56;;;;;;;0.20;0.10;;;14.60;99.90;;;;;;6247463;22;20000;-86
2022/06/09 00:20:22;;;;;;;0.40;0.20;;;14.70;99.90;;;;;;6274332;22;19996;-85
2022/06/09 00:22:47;;;;;;;0.22;0.10;;;14.70;99.90;;;;;;6274952;22;20334;-85
2022/06/09 00:25:13;;;;;;;0.85;0.17;;;14.70;99.90;;;;;;6281933;22;20080;-87
2022/06/09 00:27:39;;;;;;;1.02;0.10;;;14.70;99.90;;;;;;6336539;22;20429;-87
2022/06/09 00:30:12;;;;;;;1.02;0.57;;;14.70;99.90;;;;;;6335175;22;20047;-87
2022/06/09 00:32:38;;;;;;;0.50;0.10;;;14.80;99.90;;;;;;6336742;22;19995;-87
2022/06/09 00:35:04;;;;;;;0.68;0.20;;;15.40;99.90;;;;;;6314937;22;20005;-87
2022/06/09 00:37:36;;;;;;;0.10;0.10;;;14.70;99.90;;;;;;6280377;22;20007;-87
2022/06/09 00:40:05;;;;;;;;;;;14.70;99.90;;;;;;6280299;22;20003;-87
2022/06/09 00:42:34;;;;;;;0.10;0.10;;;14.80;99.90;;;;;;6277587;22;19938;-87
2022/06/09 00:45:36;;;;;;;0.25;0.10;;;14.70;99.90;;;;;;6277236;22;20025;-87
2022/06/09 00:48:25;;;;;;;0.80;0.30;;;14.80;99.90;;;;;;6225183;22;20003;-87
2022/06/09 00:50:59;;;;;;;0.10;0.10;;;14.80;99.90;;;;;;6305659;22;20010;-87
2022/06/09 00:53:31;;;;;;;0.10;0.10;;;14.80;99.90;;;;;;6277288;22;20004;-87
2022/06/09 00:55:59;;;;;;;0.20;0.00;;;14.80;99.90;;;;;;6277361;22;20003;-87
2022/06/09 00:58:27;;;;;;;0.20;0.10;;;14.80;99.90;;;;;;6304798;22;20003;-87
2022/06/09 01:00:57;;;;;;;0.00;0.00;;;14.80;99.90;;;;;;6277687;22;20004;-86
2022/06/09 01:03:28;;;;;;;0.20;0.10;;;14.60;99.90;;;;;;6305060;22;20454;-87
2022/06/09 01:06:06;;;;;;;0.03;0.03;;;14.50;99.90;;;;;;6277696;22;20003;-88
2022/06/09 01:08:35;;;;;;;0.30;0.10;;;14.50;99.90;;;;;;6278363;22;19999;-87
2022/06/09 01:11:03;;;;;;;0.10;0.00;;;14.50;99.90;;;;;;6276952;22;20015;-88
2022/06/09 01:13:30;;;;;;;1.58;0.10;;;14.40;99.90;;;;;;6304861;22;20485;-87
2022/06/09 01:16:23;;;;;;;0.75;0.10;;;14.40;99.90;;;;;;6277187;22;20094;-87
2022/06/09 01:19:20;;;;;;;0.43;0.00;;;14.40;99.90;;;;;;6276669;22;20023;-87
2022/06/09 01:22:10;;;;;;;0.63;0.10;;;14.30;99.90;;;;;;6277766;22;20003;-87
2022/06/09 01:24:50;;;;;;;0.30;0.28;;;14.30;99.90;;;;;;6286486;22;20008;-87
2022/06/09 01:27:15;;;;;;;0.30;0.10;;;14.20;99.90;;;;;;6304336;22;20000;-87
2022/06/09 01:29:57;;;;;;;0.10;0.00;;;14.20;99.90;;;;;;6303438;22;19995;-87
2022/06/09 01:32:35;;;;;;;0.00;0.00;;;14.20;99.90;;;;;;6303424;22;19999;-87
2022/06/09 01:35:38;;;;;;;0.10;0.00;;;14.20;99.90;;;;;;6302389;22;20086;-87
2022/06/09 01:38:04;;;;;;;0.75;0.10;;;14.20;99.90;;;;;;6303137;22;20413;-87
2022/06/09 01:40:30;;;;;;;0.30;0.10;;;14.20;99.90;;;;;;6303399;22;20500;-87
2022/06/09 01:42:57;;;;;;;0.35;0.10;;;14.20;99.90;;;;;;6301645;22;20074;-87
2022/06/09 01:45:32;;;;;;;0.00;0.00;;;14.10;99.90;;;;;;6304114;22;20004;-87
2022/06/09 01:48:13;;;;;;;0.10;0.00;;;14.40;99.90;;;;;;6304696;22;20003;-87
2022/06/09 01:50:59;;;;;;;0.10;0.00;;;14.00;99.90;;;;;;6302927;22;20049;-86
2022/06/09 01:53:43;;;;;;;0.38;0.00;;;14.00;99.90;;;;;;6302932;22;20064;-87
2022/06/09 01:56:15;;;;;;;0.05;0.00;;;14.00;99.90;;;;;;6303165;22;20054;-86
2022/06/09 01:58:49;;;;;;;0.00;0.00;;;14.00;99.90;;;;;;6305065;22;20015;-86
2022/06/09 02:01:17;;;;;;;0.10;0.03;;;13.90;99.90;;;;;;6304392;22;20003;-86
2022/06/09 02:03:45;;;;;;;0.28;0.10;;;13.90;99.90;;;;;;6304235;22;20018;-87
2022/06/09 02:06:11;;;;;;;0.03;0.03;;;13.90;99.90;;;;;;6306034;22;20011;-86
2022/06/09 02:08:38;;;;;;;1.02;0.10;;;13.90;99.90;;;;;;6304778;22;20023;-88
2022/06/09 02:11:10;;;;;;;0.35;0.08;;;13.90;99.90;;;;;;6305731;22;20065;-87
2022/06/09 02:13:39;;;;;;;0.20;0.10;;;13.90;99.90;;;;;;6305078;22;20003;-87
2022/06/09 02:16:08;;;;;;;0.73;0.10;;;14.00;99.90;;;;;;6305598;22;20027;-87
2022/06/09 02:18:41;;;;;;;0.55;0.03;;;13.90;99.90;;;;;;6304971;22;20129;-87
2022/06/09 02:21:12;;;;;;;0.68;0.05;;;13.90;99.90;;;;;;6304336;22;20437;-86
2022/06/09 02:23:39;;;;;;;0.00;0.00;;;13.90;99.90;;;;;;6304544;22;20007;-87
2022/06/09 02:26:05;;;;;;;0.00;0.00;;;13.90;99.90;;;;;;6305769;22;20004;-87
2022/06/09 02:28:33;;;;;;;0.20;0.10;;;14.00;99.90;;;;;;6306017;22;20003;-86
2022/06/09 02:30:59;;;;;;;1.98;0.30;;;13.80;99.90;;;;;;6278663;22;20452;-87
2022/06/09 02:33:25;;;;;;;1.15;0.10;;;13.80;99.90;;;;;;6305932;22;19995;-87
2022/06/09 02:35:51;;;;;;;0.32;0.10;;;13.80;99.90;;;;;;6278359;22;20362;-87
2022/06/09 02:38:20;;;;;;;0.30;0.03;;;13.80;99.90;;;;;;6278621;22;20011;-87
2022/06/09 02:40:45;;;;;;;0.17;0.10;;;13.80;99.90;;;;;;6306462;22;20018;-88
2022/06/09 02:43:13;;;;;;;0.10;0.05;;;13.80;99.90;;;;;;6306369;22;20000;-88
2022/06/09 02:45:39;;;;;;;0.20;0.10;;;13.80;99.90;;;;;;6277816;22;20021;-87
2022/06/09 02:48:05;;;;;;;0.40;0.10;;;14.30;99.90;;;;;;6306335;22;20003;-87
2022/06/09 02:50:31;;;;;;;0.55;0.20;;;13.70;99.90;;;;;;6305456;22;20007;-88
2022/06/09 02:52:57;;;;;;;0.03;0.00;;;13.60;99.90;;;;;;6279089;22;20433;-87
2022/06/09 02:55:23;;;;;;;0.20;0.10;;;13.70;99.90;;;;;;6305509;22;20082;-88
2022/06/09 02:57:49;;;;;;;1.17;0.10;;;13.60;99.90;;;;;;6278470;22;20080;-88
2022/06/09 03:00:16;;;;;;;2.22;0.20;;;13.60;99.90;;;;;;6278931;22;20010;-87
2022/06/09 03:03:03;;;;;;;0.65;0.20;;;13.60;99.90;;;;;;6278532;22;20129;-87
2022/06/09 03:05:31;;;;;;;0.13;0.10;;;13.60;99.90;;;;;;6277854;22;20064;-88
2022/06/09 03:07:57;;;;;;;0.68;0.10;;;13.60;99.90;;;;;;6278374;22;19996;-87
2022/06/09 03:10:23;;;;;;;1.67;0.30;;;13.80;99.90;;;;;;6278252;22;20042;-87
2022/06/09 03:12:49;;;;;;;0.20;0.10;;;13.60;99.90;;;;;;6278752;22;20022;-88
2022/06/09 03:15:17;;;;;;;1.17;0.30;;;13.60;99.90;;;;;;6278099;22;20003;-87
2022/06/09 03:17:43;;;;;;;0.70;0.10;;;13.60;99.90;;;;;;6278820;22;20437;-87
2022/06/09 03:20:17;;;;;;;1.95;0.10;;;13.60;99.90;;;;;;6277643;22;20453;-88
2022/06/09 03:22:43;;;;;;;0.20;0.10;;;13.60;99.90;;;;;;6278778;22;20003;-87
2022/06/09 03:25:09;;;;;;;1.02;0.10;;;13.60;99.90;;;;;;6304830;22;20082;-88
2022/06/09 03:27:35;;;;;;;0.28;0.10;;;13.60;99.90;;;;;;6305811;22;20074;-87
2022/06/09 03:30:01;;;;;;;0.65;0.20;;;13.70;99.90;;;;;;6278453;22;20003;-87
2022/06/09 03:32:27;;;;;;;0.52;0.25;;;13.70;99.90;;;;;;6278693;22;20030;-87
2022/06/09 03:34:53;;;;;;;0.28;0.15;;;13.90;99.90;;;;;;6277913;22;20010;-87
2022/06/09 03:37:19;;;;;;;1.30;0.30;;;13.70;99.90;;;;;;6278290;22;20057;-87
2022/06/09 03:39:44;;;;;;;0.73;0.30;;;13.70;99.90;;;;;;6277649;22;20014;-88
2022/06/09 03:42:10;;;;;;;1.48;0.30;;;13.70;99.90;;;;;;6305887;22;20007;-88
2022/06/09 03:44:36;;;;;;;0.20;0.10;;;13.60;99.90;;;;;;6278212;22;20030;-87
2022/06/09 03:47:01;;;;;;;1.13;0.30;;;13.60;99.90;;;;;;6278178;22;19999;-87
2022/06/09 03:49:27;;;;;;;0.57;0.20;;;13.70;99.90;;;;;;6308196;22;20429;-86
2022/06/09 03:51:53;;;;;;;0.90;0.17;;;13.60;99.90;;;;;;6280317;22;20006;-88
2022/06/09 03:54:18;;;;;;;0.13;0.08;;;13.60;99.90;;;;;;6280569;22;20060;-88
2022/06/09 03:56:44;;;;;;;1.30;0.15;;;13.60;99.90;;;;;;6280379;22;20007;-88
2022/06/09 03:59:12;;;;;;;0.55;0.30;;;13.50;99.90;;;;;;6307751;22;20429;-87
2022/06/09 04:01:38;;;;;;;0.90;0.20;;;13.50;99.90;;;;;;6280031;22;20068;-88
2022/06/09 04:04:04;;;;;;;0.57;0.20;;;13.50;99.90;;;;;;6279465;22;20003;-88
2022/06/09 04:06:30;;;;;;;0.55;0.20;;;13.50;99.90;;;;;;6278993;22;19999;-88
2022/06/09 04:08:55;;;;;;;2.08;0.30;;;13.50;99.90;;;;;;6278593;22;20026;-87
2022/06/09 04:11:23;;;;;;;0.85;0.20;;;13.40;99.90;;;;;;6278566;22;20442;-87
2022/06/09 04:13:48;;;;;;;0.90;0.25;;;13.40;99.90;;;;;;6304788;22;20004;-88
2022/06/09 04:16:32;;;;;;;1.30;0.30;;;13.40;99.90;;;;;;6277213;22;20014;-88
2022/06/09 04:19:01;;;;;;;1.48;0.22;;;13.40;99.90;;;;;;6304933;22;19999;-88
2022/06/09 04:21:29;;;;;;;0.43;0.20;;;13.50;99.90;;;;;;6277613;22;20398;-88
2022/06/09 04:23:55;;;;;;;0.35;0.20;;;13.50;99.90;;;;;;6277414;22;20007;-87
2022/06/09 04:26:23;;;;;;;0.80;0.30;;;13.40;99.90;;;;;;6305253;22;20007;-88
2022/06/09 04:28:49;;;;;;;0.70;0.28;;;13.40;99.90;;;;;;6278124;22;20008;-87
2022/06/09 04:31:16;;;;;;;1.85;0.50;;;13.50;99.90;;;;;;6304831;22;20052;-88
2022/06/09 04:33:42;;;;;;;0.93;0.30;;;13.40;99.90;;;;;;6277589;22;20472;-88
2022/06/09 04:36:09;;;;;;;0.50;0.20;;;13.40;99.90;;;;;;6277923;22;20506;-88
2022/06/09 04:38:36;;;;;;;0.70;0.30;;;13.40;99.90;;;;;;6278014;22;20034;-87
2022/06/09 04:41:04;;;;;;;0.50;0.32;;;13.50;99.90;;;;;;6277596;22;20053;-88
2022/06/09 04:43:29;;;;;;;0.70;0.30;;;13.50;99.90;;;;;;6305199;22;20003;-88
2022/06/09 04:45:55;;;;;;;2.13;0.40;;;13.90;99.90;;;;;;6277954;22;20004;-87
2022/06/09 04:48:21;;;;;;;3.28;0.32;;;13.50;99.90;;;;;;6278187;22;20007;-87
2022/06/09 04:50:47;;;;;;;0.57;0.10;;;13.50;99.90;;;;;;6277012;22;19999;-87
2022/06/09 04:53:13;;;;;;;0.98;0.40;;;13.40;99.90;;;;;;6277832;22;20437;-86
2022/06/09 04:55:41;;;;;;;1.20;0.32;;;13.40;99.90;;;;;;6277302;22;20049;-88
2022/06/09 04:58:07;;;;;;;0.82;0.20;;;13.40;99.90;;;;;;6301928;22;20339;-87
2022/06/09 05:00:33;;;;;;;0.60;0.20;;;13.30;99.90;;;;;;6304528;22;20003;-87
2022/06/09 05:03:01;;;;;;;1.00;0.40;;;13.40;99.90;;;;;;6277998;22;20338;-87
2022/06/09 05:05:34;;;;;;;0.90;0.30;;;13.40;99.90;;;;;;6277260;22;20071;-87
2022/06/09 05:08:01;;;;;;;1.48;0.50;;;13.60;99.90;;;;;;6303698;22;20000;-87
2022/06/09 05:10:27;;;;;;;4.25;0.30;;;13.30;99.90;;;;;;6303340;22;20009;-87
2022/06/09 05:12:54;;;;;;;0.20;0.20;;;13.30;99.90;;;;;;6277267;22;20007;-86
2022/06/09 05:15:21;;;;;;;1.08;0.30;;;13.40;99.90;;;;;;6277037;22;20434;-86
2022/06/09 05:17:47;;;;;;;2.28;0.32;;;13.30;99.90;;;;;;6277396;22;19999;-86
2022/06/09 05:20:16;;;;;;;0.63;0.30;;;13.30;99.90;;;;;;6277475;22;20014;-86
2022/06/09 05:22:41;;;;;;;0.82;0.30;;;13.30;99.90;;;;;;6304982;22;20003;-86
2022/06/09 05:25:08;;;;;;;1.50;0.20;;;13.30;99.90;;;;;;6304527;22;20033;-87
2022/06/09 05:27:34;;;;;;;0.75;0.25;;;13.30;99.90;;;;;;6304604;22;19996;-86
2022/06/09 05:30:00;;;;;;;2.05;0.30;;;13.30;99.90;;;;;;6278950;22;20010;-87
2022/06/09 05:32:26;;;;;;;0.32;0.20;;;13.30;99.90;;;;;;6279911;22;20165;-87
2022/06/09 05:34:52;;;;;;;1.27;0.30;;;13.30;99.90;;;;;;6307011;22;19995;-87
2022/06/09 05:37:18;;;;;;;0.60;0.30;;;13.40;99.90;;;;;;6279924;22;20017;-87
2022/06/09 05:45:13;;;;;;;1.50;0.40;;;13.70;99.90;;;;;;6305608;22;20064;-87
2022/06/09 05:47:39;;;;;;;0.70;0.20;;;14.00;99.90;;;;;;6279253;22;20067;-88
2022/06/09 05:50:06;;;;;;;0.98;0.25;;;14.10;99.90;;;;;;6279446;22;20088;-86
2022/06/09 05:52:32;;;;;;;1.08;0.43;;;14.40;99.90;;;;;;6278993;22;20090;-87
2022/06/09 05:54:58;;;;;;;2.88;0.40;;;14.60;99.90;;;;;;6306077;22;20000;-87
2022/06/09 05:57:25;;;;;;;1.73;0.30;;;14.80;99.90;;;;;;6279534;22;20011;-87
2022/06/09 05:59:52;;;;;;;0.60;0.30;;;14.90;99.90;;;;;;6276459;22;20042;-87
2022/06/09 06:02:20;;;;;;;1.85;0.50;;;15.20;99.90;;;;;;6279267;22;20077;-87
2022/06/09 06:04:49;;;;;;;2.53;0.30;;;15.30;99.90;;;;;;6306732;22;20015;-86
2022/06/09 06:07:20;;;;;;;2.00;0.15;;;15.40;99.90;;;;;;6306604;22;19999;-87
2022/06/09 06:09:46;;;;;;;0.75;0.28;;;15.60;99.90;;;;;;6279684;22;20004;-87
2022/06/09 06:12:12;;;;;;;1.17;0.22;;;15.50;99.90;;;;;;6280195;22;20056;-87
2022/06/09 06:14:38;;;;;;;1.08;0.30;;;15.50;99.90;;;;;;6303633;22;19996;-87
2022/06/09 06:18:05;;;;;;;3.40;0.20;;;15.50;99.90;;;;;;6334816;22;20086;-88
2022/06/09 06:21:38;;;;;;;;;;;;;;;;;;;;;
2022/06/09 06:24:37;;;;;;;0.55;0.20;;;15.80;99.90;;;;;;6217695;22;20030;-87
2022/06/09 06:27:35;;;;;;;0.32;0.10;;;15.40;99.90;;;;;;6298251;22;20406;-91
2022/06/09 06:30:10;;;;;;;1.08;0.13;;;15.20;99.90;;;;;;6310566;22;20002;-91
2022/06/09 06:32:57;;;;;;;0.77;0.20;;;15.30;99.90;;;;;;6307101;22;20003;-90
2022/06/09 06:35:58;;;;;;;2.58;0.20;;;15.50;99.90;;;;;;6311266;22;20015;-90
2022/06/09 06:38:37;;;;;;;0.63;0.28;;;15.40;99.90;;;;;;6310462;22;20360;-91
2022/06/09 06:41:11;;;;;;;2.33;0.20;;;15.70;99.90;;;;;;6306447;22;20038;-89
2022/06/09 06:43:44;;;;;;;2.20;0.35;;;15.70;99.90;;;;;;6307718;22;20056;-89
2022/06/09 06:46:25;;;;;;;0.95;0.30;;;15.70;99.90;;;;;;6305779;22;20003;-88
2022/06/09 06:49:22;;;;;;;0.68;0.25;;;15.80;99.90;;;;;;6306202;22;20441;-89
2022/06/09 06:51:50;;;;;;;0.50;0.20;;;15.90;99.90;;;;;;6307756;22;19999;-89
2022/06/09 06:54:40;;;;;;;0.47;0.15;;;15.90;99.90;;;;;;6310448;22;20086;-91
2022/06/09 07:32:02;;;;;;;1.55;0.10;;;16.20;99.90;;;;;;6012457;23;20019;-93
2022/06/09 11:20:09;;;;;;;1.67;0.10;;;20.80;98.40;;;;;;6339002;22;20023;-91
2022/06/09 11:23:26;;;;;;;1.38;0.20;;;20.40;99.60;;;;;;6273093;22;20019;-90
2022/06/09 12:00:23;;;;;;;2.80;0.50;;;20.50;99.90;;;;;;6341420;22;20023;-92
2022/06/09 12:03:17;;;;;;;;;;;20.70;99.70;;;;;;6339865;22;20082;-92
2022/06/09 12:10:33;;;;;;;;;;;;;;;;;;;;;
2022/06/09 12:17:12;;;;;;;0.52;0.10;;;22.10;96.10;;;;;;6242287;23;20008;-90
2022/06/09 12:26:44;;;;;;;2.15;0.20;;;23.40;94.50;;;;;;6278252;22;20394;-87
2022/06/09 12:29:38;;;;;;;0.20;0.10;;;23.40;94.60;;;;;;6340575;22;19999;-87
2022/06/09 12:32:09;;;;;;;1.15;0.10;;;22.80;95.00;;;;;;6369398;22;20009;-87
2022/06/09 12:34:49;;;;;;;1.88;0.10;;;22.30;95.90;;;;;;6367997;22;20003;-87
2022/06/09 12:37:28;;;;;;;1.05;0.30;;;21.70;95.70;;;;;;6341089;22;20094;-85
2022/06/09 12:40:03;;;;;;;2.50;0.20;;;21.50;96.00;;;;;;6342251;22;20509;-86
2022/06/09 12:42:55;;;;;;;1.13;0.10;;;21.70;96.30;;;;;;6369422;22;20009;-87
2022/06/09 12:45:31;;;;;;;2.08;0.20;;;22.50;95.30;;;;;;6340670;22;20006;-88
2022/06/09 12:48:09;;;;;;;1.65;0.20;;;22.50;94.30;;;;;;6342266;22;20003;-86
2022/06/09 12:50:52;;;;;;;0.77;0.10;;;22.60;94.60;;;;;;6368654;22;19999;-86
2022/06/09 12:53:37;;;;;;;0.50;0.10;;;22.00;93.20;;;;;;6341828;22;20052;-87
2022/06/09 12:56:07;;;;;;;1.02;0.10;;;22.40;92.60;;;;;;6369075;22;19995;-87
2022/06/09 12:58:46;;;;;;;0.68;0.10;;;22.70;92.10;;;;;;6341748;22;20003;-88
2022/06/09 13:01:21;;;;;;;1.38;0.20;;;23.30;91.40;;;;;;6342013;22;20019;-87
2022/06/09 13:04:02;;;;;;;0.50;0.10;;;23.10;91.90;;;;;;6370176;22;20059;-88
2022/06/09 13:06:35;;;;;;;0.25;0.00;;;23.00;91.00;;;;;;6342371;22;20051;-88
2022/06/09 13:09:21;;;;;;;0.95;0.10;;;23.50;91.80;;;;;;6342434;22;20353;-88
2022/06/09 13:14:38;;;;;;;0.68;0.20;;;23.80;89.40;;;;;;6384511;22;20009;-87
2022/06/09 13:17:13;;;;;;;0.35;0.10;;;24.20;90.30;;;;;;6354308;22;20117;-87
2022/06/09 13:19:46;;;;;;;2.53;0.40;;;24.40;90.90;;;;;;6344313;22;20027;-87
2022/06/09 13:22:15;;;;;;;0.30;0.10;;;23.80;91.00;;;;;;6343027;22;20404;-87
2022/06/09 13:24:42;;;;;;;0.43;0.13;;;23.20;91.70;;;;;;6370130;22;20002;-86
2022/06/09 13:27:15;;;;;;;1.15;0.13;;;22.90;91.40;;;;;;6341617;22;20006;-87
2022/06/09 13:29:55;;;;;;;1.17;0.10;;;22.70;92.80;;;;;;6341708;22;20082;-88
2022/06/09 13:32:50;;;;;;;0.60;0.20;;;23.10;92.30;;;;;;6342014;22;19998;-87
2022/06/09 13:35:50;;;;;;;0.00;0.00;;;23.50;91.90;;;;;;6320394;22;20037;-87
2022/06/09 13:38:31;;;;;;;0.63;0.10;;;23.90;90.60;;;;;;6260299;22;20432;-87
2022/06/09 13:41:36;;;;;;;1.45;0.15;;;24.50;91.00;;;;;;6342197;22;20033;-87
2022/06/09 13:44:38;;;;;;;0.47;0.10;;;23.50;88.90;;;;;;6341267;22;19999;-89
2022/06/09 13:47:25;;;;;;;1.35;0.32;;;23.00;90.30;;;;;;6340974;22;20364;-88
2022/06/09 13:50:13;;;;;;;2.20;0.10;;;22.50;90.70;;;;;;6368863;22;20006;-87
2022/06/09 13:52:43;;;;;;;0.57;0.10;;;22.40;91.10;;;;;;6342034;22;20030;-88
2022/06/09 13:55:17;;;;;;;1.33;0.20;;;22.10;91.30;;;;;;6342531;22;20010;-87
2022/06/09 13:57:49;;;;;;;0.43;0.10;;;21.90;92.20;;;;;;6371523;22;20002;-88
2022/06/09 14:00:31;;;;;;;0.80;0.20;;;21.60;92.80;;;;;;6371371;22;20077;-90
2022/06/09 14:03:07;;;;;;;0.47;0.10;;;21.70;92.70;;;;;;6343562;22;20002;-87
2022/06/09 14:05:50;;;;;;;0.25;0.10;;;22.80;91.70;;;;;;6342254;22;20010;-88
2022/06/09 14:09:04;;;;;;;0.45;0.15;;;23.70;92.10;;;;;;6342531;22;20026;-88
2022/06/09 14:11:24;;;;;;;0.85;0.20;;;24.40;89.00;;;;;;6358641;22;20026;-87
2022/06/09 14:17:00;;;;;;;0.80;0.20;;;24.20;89.70;;;;;;6366104;22;20316;-88
2022/06/09 14:19:27;;;;;;;0.77;0.13;;;23.70;89.10;;;;;;6371011;22;20027;-87
2022/06/09 14:21:55;;;;;;;1.15;0.20;;;22.80;87.10;;;;;;6343188;22;20007;-87
2022/06/09 14:24:25;;;;;;;0.80;0.20;;;22.40;89.50;;;;;;6371262;22;20027;-87
2022/06/09 14:26:55;;;;;;;0.90;0.13;;;21.80;89.80;;;;;;6342171;22;20014;-86
2022/06/09 14:29:27;;;;;;;2.40;0.28;;;21.50;90.70;;;;;;6342806;22;20421;-88
2022/06/09 14:32:03;;;;;;;3.55;0.20;;;21.20;91.40;;;;;;6371403;22;19995;-87
2022/06/09 14:34:36;;;;;;;0.55;0.30;;;21.10;92.30;;;;;;6370521;22;19998;-87
2022/06/09 14:37:02;;;;;;;0.50;0.20;;;21.00;93.40;;;;;;6370232;22;20002;-88
2022/06/09 14:39:30;;;;;;;0.85;0.20;;;22.10;94.60;;;;;;6343644;22;20010;-88
2022/06/09 14:41:56;;;;;;;1.77;0.30;;;23.00;93.40;;;;;;6341961;22;20013;-88
2022/06/09 14:44:21;;;;;;;0.80;0.20;;;23.80;91.60;;;;;;6342680;22;20007;-89
2022/06/09 14:46:58;;;;;;;1.02;0.10;;;24.40;91.50;;;;;;6342193;22;20561;-89
2022/06/09 14:49:35;;;;;;;1.30;0.38;;;24.40;90.30;;;;;;6342993;22;20003;-89
2022/06/09 14:52:20;;;;;;;2.05;0.30;;;24.00;90.50;;;;;;6341749;22;20024;-88
2022/06/09 14:54:47;;;;;;;1.08;0.28;;;23.60;90.00;;;;;;6341952;22;20443;-89
2022/06/09 14:57:20;;;;;;;0.47;0.10;;;23.10;90.40;;;;;;6370796;22;19998;-89
2022/06/09 14:59:47;;;;;;;2.60;0.30;;;22.60;91.90;;;;;;6343485;22;20016;-89
2022/06/09 15:02:24;;;;;;;1.73;0.40;;;22.60;92.20;;;;;;6342409;22;20006;-88
2022/06/09 15:04:50;;;;;;;0.82;0.25;;;22.90;91.50;;;;;;6370150;22;20002;-89
2022/06/09 15:07:23;;;;;;;1.08;0.28;;;22.90;91.00;;;;;;6342320;22;20369;-88
2022/06/09 15:10:32;;;;;;;1.38;0.32;;;22.90;91.80;;;;;;6345506;22;20002;-89
2022/06/09 15:12:59;;;;;;;1.15;0.20;;;23.60;90.40;;;;;;6372548;22;20044;-89
2022/06/09 15:16:04;;;;;;;2.03;0.20;;;24.20;89.90;;;;;;6340277;22;20044;-89
2022/06/09 15:18:42;;;;;;;1.92;0.43;;;24.70;86.60;;;;;;6219414;22;20112;-89
2022/06/09 15:21:14;;;;;;;0.73;0.20;;;24.80;87.80;;;;;;6341079;22;20048;-89
2022/06/09 15:23:54;;;;;;;;;;;;;;;;;;;;;
2022/06/09 15:26:26;;;;;;;0.70;0.30;;;23.80;85.90;;;;;;6327954;22;20029;-89
2022/06/09 15:29:14;;;;;;;0.30;0.15;;;24.30;86.80;;;;;;6282529;22;20011;-88
2022/06/09 15:31:53;;;;;;;;;;;;;;;;;;;;;
2022/06/09 15:34:22;;;;;;;1.38;0.25;;;24.40;85.90;;;;;;6310255;22;20050;-88
2022/06/09 15:36:58;;;;;;;1.80;0.35;;;24.90;86.50;;;;;;6307772;22;20038;-89
2022/06/09 15:39:44;;;;;;;1.05;0.30;;;25.30;86.70;;;;;;6310714;22;20437;-88
2022/06/09 15:42:10;;;;;;;0.65;0.20;;;25.30;84.10;;;;;;6311271;22;19999;-89
2022/06/09 15:44:36;;;;;;;1.25;0.20;;;25.00;84.80;;;;;;6284014;22;20018;-88
2022/06/09 15:47:15;;;;;;;1.98;0.30;;;25.40;84.60;;;;;;6311614;22;20004;-89
2022/06/09 15:49:44;;;;;;;1.13;0.20;;;24.80;85.00;;;;;;6311308;22;20010;-88
2022/06/09 15:52:16;;;;;;;1.45;0.20;;;24.20;87.30;;;;;;6310059;22;19999;-88
2022/06/09 15:55:00;;;;;;;2.50;0.30;;;23.90;87.70;;;;;;6308837;22;20018;-89
2022/06/09 15:57:44;;;;;;;1.05;0.20;;;23.10;89.30;;;;;;6281854;22;20014;-88
2022/06/09 16:00:31;;;;;;;0.50;0.20;;;22.40;88.60;;;;;;6309085;22;19995;-88
2022/06/09 16:02:59;;;;;;;1.38;0.28;;;22.00;90.20;;;;;;6333845;22;19999;-89
2022/06/09 16:05:26;;;;;;;1.40;0.38;;;21.50;91.10;;;;;;6323786;22;20003;-88
2022/06/09 16:07:53;;;;;;;0.68;0.40;;;20.80;92.50;;;;;;6299157;22;20010;-89
2022/06/09 16:10:31;;;;;;;3.53;0.20;;;20.50;93.50;;;;;;6299469;22;19999;-89
2022/06/09 16:12:57;;;;;;;1.15;0.30;;;20.10;94.10;;;;;;6284223;22;19999;-88
2022/06/09 16:15:23;;;;;;;0.60;0.20;;;19.70;95.20;;;;;;6307918;22;20020;-88
2022/06/09 16:17:52;;;;;;;1.55;0.10;;;19.40;95.90;;;;;;6309136;22;20010;-88
2022/06/09 16:20:25;;;;;;;1.25;0.40;;;19.30;96.40;;;;;;6308476;22;20387;-88
2022/06/09 16:22:51;;;;;;;1.05;0.20;;;19.30;96.70;;;;;;6281011;22;20011;-88
2022/06/09 16:25:21;;;;;;;0.00;0.00;;;19.20;96.30;;;;;;6279745;22;20003;-88
2022/06/09 16:27:48;;;;;;;0.30;0.10;;;19.10;95.80;;;;;;6306359;22;19999;-88
2022/06/09 16:30:18;;;;;;;0.00;0.00;;;19.00;95.20;;;;;;6307231;22;20078;-89
2022/06/09 16:32:44;;;;;;;0.10;0.00;;;18.90;95.80;;;;;;6280019;22;20003;-89
2022/06/09 16:35:16;;;;;;;0.00;0.00;;;18.90;95.70;;;;;;6306780;22;20038;-87
2022/06/09 16:37:43;;;;;;;0.10;0.05;;;18.80;95.10;;;;;;6307408;22;20091;-88
2022/06/09 16:40:16;;;;;;;0.25;0.05;;;18.60;95.20;;;;;;6307070;22;19999;-88
2022/06/09 16:42:42;;;;;;;0.22;0.10;;;18.60;95.30;;;;;;6280667;22;20021;-88
2022/06/09 16:45:08;;;;;;;1.40;0.20;;;18.30;95.80;;;;;;6308335;22;20060;-88
2022/06/09 16:47:34;;;;;;;0.85;0.10;;;18.30;95.50;;;;;;6280521;22;19999;-88
2022/06/09 16:50:01;;;;;;;1.60;0.15;;;18.30;95.70;;;;;;6306792;22;20429;-89
2022/06/09 16:52:28;;;;;;;0.95;0.17;;;18.20;96.20;;;;;;6307260;22;20105;-88
2022/06/09 16:54:54;;;;;;;0.38;0.00;;;18.20;96.20;;;;;;6306374;22;19999;-88
2022/06/09 16:57:20;;;;;;;0.43;0.10;;;18.10;96.00;;;;;;6279424;22;20022;-88
2022/06/09 17:00:12;;;;;;;0.45;0.20;;;18.30;97.10;;;;;;6310115;22;20307;-88
2022/06/09 17:02:38;;;;;;;0.08;0.08;;;18.20;96.20;;;;;;6328769;22;20000;-88
2022/06/09 17:05:04;;;;;;;0.30;0.13;;;18.10;96.50;;;;;;6308063;22;20014;-89
2022/06/09 17:07:30;;;;;;;0.65;0.10;;;18.30;96.70;;;;;;6306471;22;19996;-89
2022/06/09 17:09:55;;;;;;;0.38;0.10;;;18.40;95.90;;;;;;6306756;22;19999;-88
2022/06/09 17:12:21;;;;;;;1.55;0.10;;;18.40;95.20;;;;;;6306474;22;20031;-89
2022/06/09 17:14:48;;;;;;;0.85;0.10;;;18.40;95.30;;;;;;6305625;22;19999;-89
2022/06/09 17:17:13;;;;;;;0.40;0.10;;;18.30;95.20;;;;;;6306640;22;20026;-88
2022/06/09 17:19:39;;;;;;;1.85;0.20;;;18.10;95.30;;;;;;6306192;22;20341;-89
2022/06/09 17:22:06;;;;;;;1.45;0.10;;;18.10;95.20;;;;;;6278789;22;20527;-88
2022/06/09 17:24:32;;;;;;;0.15;0.10;;;18.00;95.60;;;;;;6278520;22;20094;-88
2022/06/09 17:26:57;;;;;;;1.70;0.20;;;18.00;95.00;;;;;;6306339;22;20006;-88
2022/06/09 17:29:26;;;;;;;0.10;0.00;;;18.00;94.90;;;;;;6308477;22;20003;-88
2022/06/09 17:31:51;;;;;;;0.15;0.10;;;18.00;95.00;;;;;;6308884;22;20007;-88
2022/06/09 17:34:17;;;;;;;0.25;0.00;;;17.90;95.00;;;;;;6307903;22;20539;-89
2022/06/09 17:36:43;;;;;;;0.82;0.10;;;17.90;94.80;;;;;;6307968;22;19999;-88
2022/06/09 17:39:12;;;;;;;0.15;0.03;;;17.90;95.50;;;;;;6281253;22;20061;-88
2022/06/09 17:41:38;;;;;;;0.28;0.10;;;17.80;94.90;;;;;;6280895;22;20337;-88
2022/06/09 17:44:05;;;;;;;0.30;0.10;;;17.80;95.40;;;;;;6308402;22;20098;-88
2022/06/09 17:46:31;;;;;;;0.88;0.10;;;17.70;95.60;;;;;;6280439;22;20082;-88
2022/06/09 17:48:57;;;;;;;0.20;0.10;;;17.80;96.30;;;;;;6308642;22;20022;-89
2022/06/09 17:51:22;;;;;;;0.52;0.10;;;17.70;96.50;;;;;;6308494;22;20423;-88
2022/06/09 17:53:48;;;;;;;0.40;0.10;;;17.70;96.80;;;;;;6280836;22;20383;-89
2022/06/09 17:56:14;;;;;;;0.38;0.15;;;17.70;96.60;;;;;;6279794;22;19999;-89
2022/06/09 17:58:40;;;;;;;0.43;0.28;;;17.70;97.00;;;;;;6281289;22;20010;-88
2022/06/09 18:01:06;;;;;;;1.60;0.30;;;17.70;96.90;;;;;;6307921;22;19999;-89
2022/06/09 18:03:32;;;;;;;0.65;0.20;;;17.80;97.30;;;;;;6307636;22;20007;-88
2022/06/09 18:06:02;;;;;;;0.63;0.10;;;17.90;97.20;;;;;;6307743;22;20057;-88
2022/06/09 18:08:32;;;;;;;0.35;0.10;;;18.10;97.20;;;;;;6308655;22;19995;-88
2022/06/09 18:11:01;;;;;;;1.85;0.25;;;18.00;97.40;;;;;;6280622;22;20052;-88
2022/06/09 18:13:27;;;;;;;0.90;0.20;;;17.90;97.80;;;;;;6308028;22;20062;-89
2022/06/09 18:15:53;;;;;;;1.80;0.30;;;18.00;98.40;;;;;;6279455;22;20477;-88
2022/06/09 18:18:21;;;;;;;0.90;0.10;;;18.00;97.80;;;;;;6282742;22;20007;-88
2022/06/09 18:20:47;;;;;;;1.00;0.13;;;18.00;97.90;;;;;;6306823;22;20011;-88
2022/06/09 18:23:15;;;;;;;1.25;0.30;;;17.90;98.20;;;;;;6308423;22;20072;-89
2022/06/09 19:26:03;;;;;;;;;;;;;;;;;;;;;
2022/06/09 19:29:42;;;;;;;;;;;;;;;;;;;;;
2022/06/09 19:53:37;;;;;;;0.68;0.20;;;16.70;99.90;;;;;;6219766;23;20017;-92
2022/06/09 20:03:07;;;;;;;0.63;0.20;;;16.70;99.90;;;;;;6248809;22;19995;-92
2022/06/09 20:12:54;;;;;;;0.38;0.10;;;16.60;99.90;;;;;;6362085;22;20018;-92
2022/06/09 20:15:51;;;;;;;2.00;0.50;;;16.50;99.90;;;;;;6334997;22;20014;-91
2022/06/09 20:18:48;;;;;;;1.40;0.50;;;16.50;99.90;;;;;;6336474;22;19990;-92
2022/06/09 20:21:47;;;;;;;1.80;0.30;;;16.50;99.90;;;;;;6364498;22;20029;-92